Time;durP1;ratioP1;P1;durP2;ratioP2;P2;SDS_P1;SDS_P2;PMS_P1;PMS_P2;Temp;Humidity;BMP_temperature;BMP_pressure;BME280_temperature;BME280_humidity;BME280_pressure;Samples;Min_cycle;Max_cycle;Signal;HPM_P1;HPM_P2
2019/08/29 00:01:30;;;;;;;12.5;9.8;;;;;;;;;;;;;
2019/08/29 00:03:57;;;;;;;11.4;9.1;;;;;;;;;;;;;
2019/08/29 00:06:20;;;;;;;9.7;8.7;;;;;;;;;;;;;
2019/08/29 00:08:45;;;;;;;11.4;9.1;;;;;;;;;;;;;
2019/08/29 00:11:21;;;;;;;9.8;8.8;;;;;;;;;;;;;
2019/08/29 00:13:42;;;;;;;9.6;8.6;;;;;;;;;;;;;
2019/08/29 00:16:08;;;;;;;10.3;8.6;;;;;;;;;;;;;
2019/08/29 00:18:38;;;;;;;11.6;8.6;;;;;;;;;;;;;
2019/08/29 00:21:20;;;;;;;11.9;8.4;;;;;;;;;;;;;
2019/08/29 00:23:41;;;;;;;10.8;8.8;;;;;;;;;;;;;
2019/08/29 00:26:15;;;;;;;11.7;9.4;;;;;;;;;;;;;
2019/08/29 00:28:36;;;;;;;11.2;8.8;;;;;;;;;;;;;
2019/08/29 00:31:02;;;;;;;12.3;9.1;;;;;;;;;;;;;
2019/08/29 00:33:35;;;;;;;12.3;9;;;;;;;;;;;;;
2019/08/29 00:35:55;;;;;;;12.5;9.3;;;;;;;;;;;;;
2019/08/29 00:38:25;;;;;;;11.7;9.6;;;;;;;;;;;;;
2019/08/29 00:43:14;;;;;;;12.6;9.3;;;;;;;;;;;;;
2019/08/29 00:45:38;;;;;;;10.8;8.9;;;;;;;;;;;;;
2019/08/29 00:48:03;;;;;;;10.3;9.1;;;;;;;;;;;;;
2019/08/29 00:50:31;;;;;;;11.1;8.8;;;;;;;;;;;;;
2019/08/29 00:52:55;;;;;;;11.3;8.4;;;;;;;;;;;;;
2019/08/29 00:55:20;;;;;;;9.1;8.2;;;;;;;;;;;;;
2019/08/29 00:58:25;;;;;;;10.4;8.6;;;;;;;;;;;;;
2019/08/29 01:00:45;;;;;;;9.8;8.8;;;;;;;;;;;;;
2019/08/29 01:03:08;;;;;;;9.5;8.5;;;;;;;;;;;;;
2019/08/29 01:07:59;;;;;;;10.4;8.3;;;;;;;;;;;;;
2019/08/29 01:10:26;;;;;;;10.3;8.6;;;;;;;;;;;;;
2019/08/29 01:12:52;;;;;;;12.4;9.1;;;;;;;;;;;;;
2019/08/29 01:15:21;;;;;;;10;8.9;;;;;;;;;;;;;
2019/08/29 01:18:15;;;;;;;10.7;9.6;;;;;;;;;;;;;
2019/08/29 01:20:04;;;;;;;13.8;8.7;;;;;;;;;;;;;
2019/08/29 01:22:36;;;;;;;11.7;9.1;;;;;;;;;;;;;
2019/08/29 01:25:01;;;;;;;11.9;8.5;;;;;;;;;;;;;
2019/08/29 01:27:30;;;;;;;9.8;8.5;;;;;;;;;;;;;
2019/08/29 01:29:51;;;;;;;10.2;8.8;;;;;;;;;;;;;
2019/08/29 01:32:19;;;;;;;10.2;8.9;;;;;;;;;;;;;
2019/08/29 01:34:49;;;;;;;10.5;8.8;;;;;;;;;;;;;
2019/08/29 01:37:15;;;;;;;9.3;7.8;;;;;;;;;;;;;
2019/08/29 01:40:26;;;;;;;8.7;7.8;;;;;;;;;;;;;
2019/08/29 01:42:45;;;;;;;9.8;8.2;;;;;;;;;;;;;
2019/08/29 01:45:06;;;;;;;12.6;8;;;;;;;;;;;;;
2019/08/29 01:47:32;;;;;;;10.1;8.1;;;;;;;;;;;;;
2019/08/29 01:49:55;;;;;;;9.3;7.8;;;;;;;;;;;;;
2019/08/29 01:52:23;;;;;;;9.3;8.1;;;;;;;;;;;;;
2019/08/29 01:54:51;;;;;;;8.3;7.4;;;;;;;;;;;;;
2019/08/29 01:57:13;;;;;;;8.7;7.6;;;;;;;;;;;;;
2019/08/29 01:59:43;;;;;;;9.9;8.5;;;;;;;;;;;;;
2019/08/29 02:02:07;;;;;;;11.4;8.1;;;;;;;;;;;;;
2019/08/29 02:04:32;;;;;;;10.1;7.9;;;;;;;;;;;;;
2019/08/29 02:07:02;;;;;;;8.4;7.5;;;;;;;;;;;;;
2019/08/29 02:09:26;;;;;;;11.9;8.1;;;;;;;;;;;;;
2019/08/29 02:12:07;;;;;;;8.7;7.8;;;;;;;;;;;;;
2019/08/29 02:14:30;;;;;;;9.1;7.9;;;;;;;;;;;;;
2019/08/29 02:17:22;;;;;;;10.1;7.9;;;;;;;;;;;;;
2019/08/29 02:19:47;;;;;;;8.3;7.4;;;;;;;;;;;;;
2019/08/29 02:22:12;;;;;;;10.3;7.6;;;;;;;;;;;;;
2019/08/29 02:24:41;;;;;;;8.4;7.5;;;;;;;;;;;;;
2019/08/29 02:27:06;;;;;;;8.2;7.3;;;;;;;;;;;;;
2019/08/29 02:29:29;;;;;;;8.4;7.5;;;;;;;;;;;;;
2019/08/29 02:32:01;;;;;;;8.4;7.5;;;;;;;;;;;;;
2019/08/29 02:34:26;;;;;;;8.3;7.5;;;;;;;;;;;;;
2019/08/29 02:39:27;;;;;;;8.3;7.4;;;;;;;;;;;;;
2019/08/29 02:41:54;;;;;;;8.7;7.3;;;;;;;;;;;;;
2019/08/29 02:44:15;;;;;;;8.1;7.3;;;;;;;;;;;;;
2019/08/29 02:46:44;;;;;;;8.4;7.5;;;;;;;;;;;;;
2019/08/29 02:49:12;;;;;;;8.5;7.6;;;;;;;;;;;;;
2019/08/29 02:51:35;;;;;;;10.1;8.3;;;;;;;;;;;;;
2019/08/29 02:54:07;;;;;;;10.4;8.3;;;;;;;;;;;;;
2019/08/29 02:56:31;;;;;;;9.5;8.2;;;;;;;;;;;;;
2019/08/29 02:58:53;;;;;;;11.8;9.2;;;;;;;;;;;;;
2019/08/29 03:01:27;;;;;;;10.4;8.6;;;;;;;;;;;;;
2019/08/29 03:03:53;;;;;;;10.9;8.3;;;;;;;;;;;;;
2019/08/29 03:06:22;;;;;;;9.9;8.8;;;;;;;;;;;;;
2019/08/29 03:08:51;;;;;;;9.9;8.9;;;;;;;;;;;;;
2019/08/29 03:11:14;;;;;;;10.3;8.7;;;;;;;;;;;;;
2019/08/29 03:13:43;;;;;;;11.4;8.7;;;;;;;;;;;;;
2019/08/29 03:16:27;;;;;;;10.5;9.1;;;;;;;;;;;;;
2019/08/29 03:19:02;;;;;;;10.2;9.1;;;;;;;;;;;;;
2019/08/29 03:21:21;;;;;;;10.8;9.2;;;;;;;;;;;;;
2019/08/29 03:23:48;;;;;;;12.9;8.6;;;;;;;;;;;;;
2019/08/29 03:26:18;;;;;;;11.5;8.8;;;;;;;;;;;;;
2019/08/29 03:28:43;;;;;;;9.1;8.2;;;;;;;;;;;;;
2019/08/29 03:31:09;;;;;;;10.4;7.9;;;;;;;;;;;;;
2019/08/29 03:33:34;;;;;;;9.4;8.4;;;;;;;;;;;;;
2019/08/29 03:36:23;;;;;;;10.9;8.3;;;;;;;;;;;;;
2019/08/29 03:38:52;;;;;;;9.6;8.3;;;;;;;;;;;;;
2019/08/29 03:41:13;;;;;;;9.1;8.1;;;;;;;;;;;;;
2019/08/29 03:43:41;;;;;;;9.1;7.9;;;;;;;;;;;;;
2019/08/29 03:46:07;;;;;;;10.9;8.1;;;;;;;;;;;;;
2019/08/29 03:51:11;;;;;;;9.2;8;;;;;;;;;;;;;
2019/08/29 03:53:39;;;;;;;8.8;7.7;;;;;;;;;;;;;
2019/08/29 03:56:04;;;;;;;10.7;8.3;;;;;;;;;;;;;
2019/08/29 03:58:27;;;;;;;9.3;8.4;;;;;;;;;;;;;
2019/08/29 04:02:37;;;;;;;10.5;8.2;;;;;;;19.58;86.1416;941.5289;;;;
2019/08/29 04:05:05;;;;;;;9.4;8.4;;;;;;;19.62;86.125;941.4967;;;;
2019/08/29 04:07:39;;;;;;;10.5;8.7;;;;;;;19.67;86.00586;941.4749;;;;
2019/08/29 04:10:15;;;;;;;11.1;8.5;;;;;;;19.63;85.50879;941.4959;;;;
2019/08/29 04:12:42;;;;;;;9.5;8.3;;;;;;;19.63;85.47363;941.5176;;;;
2019/08/29 04:15:04;;;;;;;10.3;8.6;;;;;;;19.65;85.3623;941.5706;;;;
2019/08/29 04:17:30;;;;;;;8.9;8.1;;;;;;;;;;;;;
2019/08/29 04:19:54;;;;;;;9.6;8.1;;;;;;;;;;;;;
2019/08/29 04:22:22;;;;;;;9;8.1;;;;;;;;;;;;;
2019/08/29 04:24:47;;;;;;;10.1;8.5;;;;;;;;;;;;;
2019/08/29 04:27:20;;;;;;;11.1;8.4;;;;;;;;;;;;;
2019/08/29 04:29:41;;;;;;;10.5;8.2;;;;;;;;;;;;;
2019/08/29 04:32:04;;;;;;;8.9;8;;;;;;;;;;;;;
2019/08/29 04:34:47;;;;;;;10.7;8.3;;;;;;;;;;;;;
2019/08/29 04:37:10;;;;;;;10.3;8.6;;;;;;;;;;;;;
2019/08/29 04:39:37;;;;;;;11.2;8.6;;;;;;;;;;;;;
2019/08/29 04:42:05;;;;;;;9.9;8;;;;;;;;;;;;;
2019/08/29 04:49:25;;;;;;;11.7;9.4;;;;;;;;;;;;;
2019/08/29 04:51:46;;;;;;;10.9;9;;;;;;;;;;;;;
2019/08/29 04:54:13;;;;;;;10.4;8.7;;;;;;;;;;;;;
2019/08/29 04:56:40;;;;;;;10.8;8.6;;;;;;;;;;;;;
2019/08/29 04:59:12;;;;;;;11.7;8.7;;;;;;;;;;;;;
2019/08/29 05:01:31;;;;;;;12.5;8.9;;;;;;;;;;;;;
2019/08/29 05:04:11;;;;;;;11.9;8.7;;;;;;;;;;;;;
2019/08/29 05:06:36;;;;;;;11.6;8.6;;;;;;;;;;;;;
2019/08/29 05:09:09;;;;;;;13.4;9.4;;;;;;;;;;;;;
2019/08/29 05:11:38;;;;;;;9.4;8.4;;;;;;;;;;;;;
2019/08/29 05:14:11;;;;;;;9.8;8.2;;;;;;;;;;;;;
2019/08/29 05:16:34;;;;;;;10.2;8.5;;;;;;;;;;;;;
2019/08/29 05:18:59;;;;;;;9.6;8;;;;;;;;;;;;;
2019/08/29 05:21:25;;;;;;;9;7.9;;;;;;;;;;;;;
2019/08/29 05:23:50;;;;;;;9.5;8.1;;;;;;;;;;;;;
2019/08/29 05:26:15;;;;;;;10.6;8.2;;;;;;;;;;;;;
2019/08/29 05:28:41;;;;;;;10.6;8;;;;;;;;;;;;;
2019/08/29 05:31:14;;;;;;;10.9;7.6;;;;;;;;;;;;;
2019/08/29 05:34:13;;;;;;;8.5;7.7;;;;;;;;;;;;;
2019/08/29 05:36:26;;;;;;;10.9;9;;;;;;;;;;;;;
2019/08/29 05:38:49;;;;;;;18.1;10.9;;;;;;;;;;;;;
2019/08/29 05:41:36;;;;;;;18.8;13.5;;;;;;;;;;;;;
2019/08/29 05:43:45;;;;;;;18;12.2;;;;;;;;;;;;;
2019/08/29 05:46:07;;;;;;;16.4;12.2;;;;;;;;;;;;;
2019/08/29 05:48:31;;;;;;;19.4;12.8;;;;;;;;;;;;;
2019/08/29 05:51:00;;;;;;;18;12.1;;;;;;;;;;;;;
2019/08/29 05:53:25;;;;;;;14.9;11.2;;;;;;;;;;;;;
2019/08/29 05:55:49;;;;;;;15.7;11.5;;;;;;;;;;;;;
2019/08/29 05:58:22;;;;;;;13.6;9;;;;;;;;;;;;;
2019/08/29 06:00:40;;;;;;;9.5;8.5;;;;;;;;;;;;;
2019/08/29 06:03:04;;;;;;;9.5;8.3;;;;;;;;;;;;;
2019/08/29 06:05:29;;;;;;;12.1;8.9;;;;;;;;;;;;;
2019/08/29 06:07:55;;;;;;;9.8;7.9;;;;;;;;;;;;;
2019/08/29 06:10:34;;;;;;;8.4;7.6;;;;;;;;;;;;;
2019/08/29 06:12:47;;;;;;;8.5;7.7;;;;;;;;;;;;;
2019/08/29 06:15:13;;;;;;;8.2;7.1;;;;;;;;;;;;;
2019/08/29 06:17:36;;;;;;;10.6;7.3;;;;;;;;;;;;;
2019/08/29 06:20:07;;;;;;;10.7;7.5;;;;;;;;;;;;;
2019/08/29 06:22:29;;;;;;;8.9;8;;;;;;;;;;;;;
2019/08/29 06:24:52;;;;;;;11.7;7.8;;;;;;;;;;;;;
2019/08/29 06:27:16;;;;;;;8.3;7.4;;;;;;;;;;;;;
2019/08/29 06:29:48;;;;;;;10.5;7.5;;;;;;;;;;;;;
2019/08/29 06:32:15;;;;;;;9.5;7.7;;;;;;;;;;;;;
2019/08/29 06:34:39;;;;;;;9.2;7.8;;;;;;;;;;;;;
2019/08/29 06:37:05;;;;;;;10.3;7.2;;;;;;;;;;;;;
2019/08/29 06:39:31;;;;;;;8.8;7.5;;;;;;;;;;;;;
2019/08/29 06:41:55;;;;;;;9.9;7.2;;;;;;;;;;;;;
2019/08/29 06:44:25;;;;;;;8.1;6.8;;;;;;;;;;;;;
2019/08/29 06:46:47;;;;;;;9;7.4;;;;;;;;;;;;;
2019/08/29 06:49:22;;;;;;;9.9;7.4;;;;;;;;;;;;;
2019/08/29 06:51:44;;;;;;;8.6;7.7;;;;;;;;;;;;;
2019/08/29 06:54:12;;;;;;;10.4;7.3;;;;;;;;;;;;;
2019/08/29 06:56:41;;;;;;;9.9;7.3;;;;;;;;;;;;;
2019/08/29 06:59:02;;;;;;;10.1;7.3;;;;;;;;;;;;;
2019/08/29 07:01:28;;;;;;;13.2;7;;;;;;;;;;;;;
2019/08/29 07:04:00;;;;;;;8.6;6.9;;;;;;;;;;;;;
2019/08/29 07:08:51;;;;;;;9.8;7.1;;;;;;;;;;;;;
2019/08/29 07:11:19;;;;;;;11.5;7.1;;;;;;;;;;;;;
2019/08/29 07:14:06;;;;;;;14.1;7.5;;;;;;;;;;;;;
2019/08/29 07:16:10;;;;;;;11.6;7;;;;;;;;;;;;;
2019/08/29 07:18:33;;;;;;;9.2;7;;;;;;;;;;;;;
2019/08/29 07:21:00;;;;;;;9.1;7.1;;;;;;;;;;;;;
2019/08/29 07:23:26;;;;;;;10.6;7.1;;;;;;;;;;;;;
2019/08/29 07:25:49;;;;;;;8.6;7.4;;;;;;;;;;;;;
2019/08/29 07:28:19;;;;;;;7.8;6.8;;;;;;;;;;;;;
2019/08/29 07:30:44;;;;;;;8.1;7.3;;;;;;;;;;;;;
2019/08/29 07:33:18;;;;;;;9.6;7.3;;;;;;;;;;;;;
2019/08/29 07:35:46;;;;;;;12.6;7.4;;;;;;;;;;;;;
2019/08/29 07:38:18;;;;;;;8.5;7.1;;;;;;;;;;;;;
2019/08/29 07:40:35;;;;;;;9.6;7.2;;;;;;;;;;;;;
2019/08/29 07:42:59;;;;;;;10.6;6.8;;;;;;;;;;;;;
2019/08/29 07:45:29;;;;;;;8.1;6.9;;;;;;;;;;;;;
2019/08/29 07:47:49;;;;;;;10.4;6.6;;;;;;;;;;;;;
2019/08/29 07:50:16;;;;;;;8.6;6.8;;;;;;;;;;;;;
2019/08/29 07:52:41;;;;;;;8.6;6.8;;;;;;;;;;;;;
2019/08/29 07:55:11;;;;;;;11.5;7.1;;;;;;;;;;;;;
2019/08/29 07:57:32;;;;;;;11.4;6.6;;;;;;;;;;;;;
2019/08/29 08:00:00;;;;;;;11;6.6;;;;;;;;;;;;;
2019/08/29 08:02:23;;;;;;;7.8;6.1;;;;;;;;;;;;;
2019/08/29 08:04:56;;;;;;;6.6;5.8;;;;;;;;;;;;;
2019/08/29 08:07:17;;;;;;;9.8;5.8;;;;;;;;;;;;;
2019/08/29 08:10:13;;;;;;;7.2;6.2;;;;;;;;;;;;;
2019/08/29 08:12:42;;;;;;;7.8;6;;;;;;;;;;;;;
2019/08/29 08:15:05;;;;;;;6.8;5.9;;;;;;;;;;;;;
2019/08/29 08:18:15;;;;;;;9.7;5.9;;;;;;;;;;;;;
2019/08/29 08:20:30;;;;;;;8.6;6.5;;;;;;;;;;;;;
2019/08/29 08:22:56;;;;;;;10.4;6.1;;;;;;;;;;;;;
2019/08/29 08:25:18;;;;;;;9.7;6.3;;;;;;;;;;;;;
2019/08/29 08:27:41;;;;;;;9.5;6.4;;;;;;;;;;;;;
2019/08/29 08:30:06;;;;;;;6.8;6.1;;;;;;;;;;;;;
2019/08/29 08:32:34;;;;;;;9.8;6.3;;;;;;;;;;;;;
2019/08/29 08:34:58;;;;;;;8.4;6.2;;;;;;;;;;;;;
2019/08/29 08:37:30;;;;;;;11;5.9;;;;;;;;;;;;;
2019/08/29 08:39:46;;;;;;;10.1;5.7;;;;;;;;;;;;;
2019/08/29 08:42:11;;;;;;;8.7;5.9;;;;;;;;;;;;;
2019/08/29 08:44:40;;;;;;;9.1;5.9;;;;;;;;;;;;;
2019/08/29 08:47:05;;;;;;;12.5;5.9;;;;;;;;;;;;;
2019/08/29 08:49:29;;;;;;;9.2;5.6;;;;;;;;;;;;;
2019/08/29 08:51:58;;;;;;;8.9;5.9;;;;;;;;;;;;;
2019/08/29 08:54:22;;;;;;;6.6;5.7;;;;;;;;;;;;;
2019/08/29 08:56:52;;;;;;;9.6;5.8;;;;;;;;;;;;;
2019/08/29 08:59:12;;;;;;;8.5;5.9;;;;;;;;;;;;;
2019/08/29 09:01:38;;;;;;;7.3;6;;;;;;;;;;;;;
2019/08/29 09:04:02;;;;;;;9.4;5.8;;;;;;;;;;;;;
2019/08/29 09:06:33;;;;;;;8.5;6.3;;;;;;;;;;;;;
2019/08/29 09:09:12;;;;;;;11.4;6.4;;;;;;;;;;;;;
2019/08/29 09:11:41;;;;;;;8.9;6;;;;;;;;;;;;;
2019/08/29 09:14:05;;;;;;;10.2;6.1;;;;;;;;;;;;;
2019/08/29 09:16:34;;;;;;;11.4;6.2;;;;;;;;;;;;;
2019/08/29 09:19:01;;;;;;;9.8;6.6;;;;;;;;;;;;;
2019/08/29 09:21:34;;;;;;;8.2;5.9;;;;;;;;;;;;;
2019/08/29 09:23:58;;;;;;;8.6;5.9;;;;;;;;;;;;;
2019/08/29 09:26:35;;;;;;;9.4;5.8;;;;;;;;;;;;;
2019/08/29 09:28:57;;;;;;;8.4;5.6;;;;;;;;;;;;;
2019/08/29 09:31:18;;;;;;;9.6;6;;;;;;;;;;;;;
2019/08/29 09:33:52;;;;;;;8.5;5.7;;;;;;;;;;;;;
2019/08/29 09:36:11;;;;;;;7.8;5.6;;;;;;;;;;;;;
2019/08/29 09:38:43;;;;;;;8.6;5.9;;;;;;;;;;;;;
2019/08/29 09:41:17;;;;;;;8.2;5.9;;;;;;;;;;;;;
2019/08/29 09:43:43;;;;;;;7.6;5.7;;;;;;;;;;;;;
2019/08/29 09:46:14;;;;;;;9.5;5.9;;;;;;;;;;;;;
2019/08/29 09:48:38;;;;;;;16.2;7.9;;;;;;;;;;;;;
2019/08/29 09:51:07;;;;;;;21.3;9;;;;;;;;;;;;;
2019/08/29 09:53:34;;;;;;;11.1;6.8;;;;;;;;;;;;;
2019/08/29 09:56:15;;;;;;;10.9;6.7;;;;;;;;;;;;;
2019/08/29 09:58:29;;;;;;;11;6.3;;;;;;;;;;;;;
2019/08/29 10:00:57;;;;;;;6.8;5.5;;;;;;;;;;;;;
2019/08/29 10:03:24;;;;;;;9.7;6.9;;;;;;;;;;;;;
2019/08/29 10:05:48;;;;;;;8.8;5.8;;;;;;;;;;;;;
2019/08/29 10:08:14;;;;;;;7.5;6;;;;;;;;;;;;;
2019/08/29 10:10:38;;;;;;;15.8;7.1;;;;;;;;;;;;;
2019/08/29 10:13:07;;;;;;;11.6;6.3;;;;;;;;;;;;;
2019/08/29 10:15:35;;;;;;;7.7;5.9;;;;;;;;;;;;;
2019/08/29 10:18:04;;;;;;;8.4;6;;;;;;;;;;;;;
2019/08/29 10:20:29;;;;;;;9.2;6;;;;;;;;;;;;;
2019/08/29 10:22:58;;;;;;;6.8;6;;;;;;;;;;;;;
2019/08/29 10:25:41;;;;;;;7.5;5.8;;;;;;;;;;;;;
2019/08/29 10:27:50;;;;;;;8.8;5.9;;;;;;;;;;;;;
2019/08/29 10:30:17;;;;;;;7.1;5.7;;;;;;;;;;;;;
2019/08/29 10:32:48;;;;;;;6.4;5.7;;;;;;;;;;;;;
2019/08/29 10:35:10;;;;;;;9.7;6.1;;;;;;;;;;;;;
2019/08/29 10:37:38;;;;;;;8.4;5.9;;;;;;;;;;;;;
2019/08/29 10:40:00;;;;;;;8.6;5.8;;;;;;;;;;;;;
2019/08/29 10:42:29;;;;;;;7.7;6.7;;;;;;;;;;;;;
2019/08/29 10:44:58;;;;;;;8.5;6.5;;;;;;;;;;;;;
2019/08/29 10:47:19;;;;;;;7.6;6.3;;;;;;;;;;;;;
2019/08/29 10:49:43;;;;;;;7.9;6;;;;;;;;;;;;;
2019/08/29 10:52:13;;;;;;;8.7;6.1;;;;;;;;;;;;;
2019/08/29 10:54:55;;;;;;;9.2;6.4;;;;;;;;;;;;;
2019/08/29 10:57:08;;;;;;;10;6.3;;;;;;;;;;;;;
2019/08/29 10:59:33;;;;;;;8.5;6;;;;;;;;;;;;;
2019/08/29 11:02:02;;;;;;;11.9;6.2;;;;;;;;;;;;;
2019/08/29 11:04:29;;;;;;;9.3;6;;;;;;;;;;;;;
2019/08/29 11:06:49;;;;;;;8.4;6;;;;;;;;;;;;;
2019/08/29 11:09:22;;;;;;;10.1;5.7;;;;;;;;;;;;;
2019/08/29 11:11:45;;;;;;;9.2;6.2;;;;;;;;;;;;;
2019/08/29 11:14:09;;;;;;;9.6;6.1;;;;;;;;;;;;;
2019/08/29 11:16:35;;;;;;;6.8;5.4;;;;;;;;;;;;;
2019/08/29 11:19:03;;;;;;;7.5;5.9;;;;;;;;;;;;;
2019/08/29 11:21:28;;;;;;;10.6;5.8;;;;;;;;;;;;;
2019/08/29 11:23:59;;;;;;;10.3;6;;;;;;;;;;;;;
2019/08/29 11:26:24;;;;;;;9.6;6.1;;;;;;;;;;;;;
2019/08/29 11:28:52;;;;;;;7.7;5.6;;;;;;;;;;;;;
2019/08/29 11:31:16;;;;;;;6.3;5.6;;;;;;;;;;;;;
2019/08/29 11:33:42;;;;;;;7.2;5.4;;;;;;;;;;;;;
2019/08/29 11:36:07;;;;;;;6.2;5.4;;;;;;;;;;;;;
2019/08/29 11:38:35;;;;;;;6.2;5.6;;;;;;;;;;;;;
2019/08/29 11:40:59;;;;;;;6;5.4;;;;;;;;;;;;;
2019/08/29 11:43:35;;;;;;;7;5.9;;;;;;;;;;;;;
2019/08/29 11:45:54;;;;;;;7.5;5.6;;;;;;;;;;;;;
2019/08/29 11:48:21;;;;;;;6.1;5.4;;;;;;;;;;;;;
2019/08/29 11:53:26;;;;;;;7.2;5.8;;;;;;;;;;;;;
2019/08/29 11:55:49;;;;;;;9.1;6.3;;;;;;;;;;;;;
2019/08/29 11:58:14;;;;;;;73.1;11.2;;;;;;;;;;;;;
2019/08/29 12:00:44;;;;;;;74.7;12.5;;;;;;;;;;;;;
2019/08/29 12:03:08;;;;;;;66;11.6;;;;;;;;;;;;;
2019/08/29 12:05:41;;;;;;;7.5;6.1;;;;;;;;;;;;;
2019/08/29 12:08:00;;;;;;;8.7;6.6;;;;;;;;;;;;;
2019/08/29 12:10:26;;;;;;;14.4;6.6;;;;;;;;;;;;;
2019/08/29 12:12:59;;;;;;;7;5.5;;;;;;;;;;;;;
2019/08/29 12:15:23;;;;;;;11.4;6.2;;;;;;;;;;;;;
2019/08/29 12:17:51;;;;;;;7;5.8;;;;;;;;;;;;;
2019/08/29 12:20:14;;;;;;;9.2;6.1;;;;;;;;;;;;;
2019/08/29 12:22:41;;;;;;;8.9;5.8;;;;;;;;;;;;;
2019/08/29 12:25:11;;;;;;;8;5.7;;;;;;;;;;;;;
2019/08/29 12:27:35;;;;;;;7.4;6.2;;;;;;;;;;;;;
2019/08/29 12:30:14;;;;;;;6.8;6.1;;;;;;;;;;;;;
2019/08/29 12:32:41;;;;;;;7.1;5.7;;;;;;;;;;;;;
2019/08/29 12:35:05;;;;;;;7.4;5.6;;;;;;;;;;;;;
2019/08/29 12:37:34;;;;;;;7.1;6;;;;;;;;;;;;;
2019/08/29 12:39:59;;;;;;;6.7;6.1;;;;;;;;;;;;;
2019/08/29 12:42:21;;;;;;;6.6;6;;;;;;;;;;;;;
2019/08/29 12:45:15;;;;;;;7.3;6.6;;;;;;;;;;;;;
2019/08/29 12:47:29;;;;;;;8.5;6.2;;;;;;;;;;;;;
2019/08/29 12:49:52;;;;;;;6.4;5.8;;;;;;;;;;;;;
2019/08/29 12:52:21;;;;;;;6.9;5.6;;;;;;;;;;;;;
2019/08/29 12:54:44;;;;;;;6.6;6;;;;;;;;;;;;;
2019/08/29 12:57:09;;;;;;;8;5.9;;;;;;;;;;;;;
2019/08/29 12:59:33;;;;;;;7;6.3;;;;;;;;;;;;;
2019/08/29 13:02:00;;;;;;;8.7;6.1;;;;;;;;;;;;;
2019/08/29 13:04:24;;;;;;;6.7;6.1;;;;;;;;;;;;;
2019/08/29 13:06:49;;;;;;;9.8;6;;;;;;;;;;;;;
2019/08/29 13:09:18;;;;;;;7.3;5.6;;;;;;;;;;;;;
2019/08/29 13:11:41;;;;;;;7.4;5.8;;;;;;;;;;;;;
2019/08/29 13:14:06;;;;;;;8.4;6.6;;;;;;;;;;;;;
2019/08/29 13:16:30;;;;;;;11.5;6.6;;;;;;;;;;;;;
2019/08/29 13:19:01;;;;;;;10.8;6.4;;;;;;;;;;;;;
2019/08/29 13:21:23;;;;;;;7.7;6.4;;;;;;;;;;;;;
2019/08/29 13:23:50;;;;;;;8.3;5.9;;;;;;;;;;;;;
2019/08/29 13:26:18;;;;;;;6.5;5.9;;;;;;;;;;;;;
2019/08/29 13:28:44;;;;;;;7.7;5.8;;;;;;;;;;;;;
2019/08/29 13:31:08;;;;;;;7.1;5.8;;;;;;;;;;;;;
2019/08/29 13:33:35;;;;;;;8.1;5.7;;;;;;;;;;;;;
2019/08/29 13:36:01;;;;;;;6.9;6;;;;;;;;;;;;;
2019/08/29 13:38:26;;;;;;;7.3;6;;;;;;;;;;;;;
2019/08/29 13:40:57;;;;;;;9.1;7.1;;;;;;;;;;;;;
2019/08/29 13:43:21;;;;;;;11.3;6.8;;;;;;;;;;;;;
2019/08/29 13:45:55;;;;;;;9;6.4;;;;;;;;;;;;;
2019/08/29 13:48:13;;;;;;;7.5;6.3;;;;;;;;;;;;;
2019/08/29 13:50:39;;;;;;;8.9;6.2;;;;;;;;;;;;;
2019/08/29 13:53:04;;;;;;;7.9;5.9;;;;;;;;;;;;;
2019/08/29 13:55:31;;;;;;;6.3;5.7;;;;;;;;;;;;;
2019/08/29 13:57:57;;;;;;;6.2;5.4;;;;;;;;;;;;;
2019/08/29 14:00:20;;;;;;;7;5.6;;;;;;;;;;;;;
2019/08/29 14:02:50;;;;;;;5.8;5.2;;;;;;;;;;;;;
2019/08/29 14:05:15;;;;;;;5.4;4.9;;;;;;;;;;;;;
2019/08/29 14:07:38;;;;;;;5.4;4.8;;;;;;;;;;;;;
2019/08/29 14:10:02;;;;;;;7.4;5;;;;;;;;;;;;;
2019/08/29 14:12:30;;;;;;;5.5;4.8;;;;;;;;;;;;;
2019/08/29 14:14:53;;;;;;;6.2;4.9;;;;;;;;;;;;;
2019/08/29 14:17:18;;;;;;;6;4.7;;;;;;;;;;;;;
2019/08/29 14:19:45;;;;;;;6.2;4.7;;;;;;;;;;;;;
2019/08/29 14:22:10;;;;;;;8.1;4.8;;;;;;;;;;;;;
2019/08/29 14:24:35;;;;;;;6.4;4.4;;;;;;;;;;;;;
2019/08/29 14:27:02;;;;;;;5.7;4.4;;;;;;;;;;;;;
2019/08/29 14:29:43;;;;;;;5.8;4.6;;;;;;;;;;;;;
2019/08/29 14:32:03;;;;;;;4.7;4.2;;;;;;;;;;;;;
2019/08/29 14:34:28;;;;;;;5.3;4.4;;;;;;;;;;;;;
2019/08/29 14:36:56;;;;;;;4.5;4.1;;;;;;;;;;;;;
2019/08/29 14:39:20;;;;;;;5.8;4.6;;;;;;;;;;;;;
2019/08/29 14:41:44;;;;;;;5.7;4.2;;;;;;;;;;;;;
2019/08/29 14:44:09;;;;;;;4.8;4.1;;;;;;;;;;;;;
2019/08/29 14:46:36;;;;;;;6.2;4.7;;;;;;;;;;;;;
2019/08/29 14:49:04;;;;;;;5.8;4.7;;;;;;;;;;;;;
2019/08/29 14:51:28;;;;;;;6.1;4.4;;;;;;;;;;;;;
2019/08/29 14:53:59;;;;;;;4.7;4.3;;;;;;;;;;;;;
2019/08/29 14:56:24;;;;;;;6.2;4.4;;;;;;;;;;;;;
2019/08/29 14:59:19;;;;;;;5.5;4.5;;;;;;;;;;;;;
2019/08/29 15:01:53;;;;;;;5.9;4.3;;;;;;;;;;;;;
2019/08/29 15:04:18;;;;;;;5;4.4;;;;;;;;;;;;;
2019/08/29 15:06:40;;;;;;;5.9;4.4;;;;;;;;;;;;;
2019/08/29 15:09:17;;;;;;;5.8;4.3;;;;;;;;;;;;;
2019/08/29 15:11:45;;;;;;;5.7;4.5;;;;;;;;;;;;;
2019/08/29 15:14:33;;;;;;;5;4.5;;;;;;;;;;;;;
2019/08/29 15:16:35;;;;;;;7.1;4.5;;;;;;;;;;;;;
2019/08/29 15:19:17;;;;;;;6.8;4.9;;;;;;;;;;;;;
2019/08/29 15:21:22;;;;;;;5.8;4.5;;;;;;;;;;;;;
2019/08/29 15:24:14;;;;;;;5;4.5;;;;;;;;;;;;;
2019/08/29 15:26:17;;;;;;;5.2;4.3;;;;;;;;;;;;;
2019/08/29 15:31:18;;;;;;;5.9;4.6;;;;;;;;;;;;;
2019/08/29 15:33:44;;;;;;;4.9;4.4;;;;;;;;;;;;;
2019/08/29 15:36:06;;;;;;;7.3;4.6;;;;;;;;;;;;;
2019/08/29 15:38:32;;;;;;;5.9;5;;;;;;;;;;;;;
2019/08/29 15:41:06;;;;;;;6.4;4.8;;;;;;;;;;;;;
2019/08/29 15:46:24;;;;;;;5.1;4.6;;;;;;;;;;;;;
2019/08/29 15:48:45;;;;;;;6.7;4.6;;;;;;;;;;;;;
2019/08/29 15:51:09;;;;;;;5.4;4.6;;;;;;;;;;;;;
2019/08/29 15:53:33;;;;;;;6.2;4.7;;;;;;;;;;;;;
2019/08/29 15:56:00;;;;;;;8.9;6.4;;;;;;;;;;;;;
2019/08/29 15:58:24;;;;;;;5.5;4.6;;;;;;;;;;;;;
2019/08/29 16:00:51;;;;;;;6.5;5.2;;;;;;;;;;;;;
2019/08/29 16:03:24;;;;;;;9.4;4.6;;;;;;;;;;;;;
2019/08/29 16:05:46;;;;;;;6.4;4.5;;;;;;;;;;;;;
2019/08/29 16:08:11;;;;;;;6;4.7;;;;;;;;;;;;;
2019/08/29 16:10:35;;;;;;;5.3;4.8;;;;;;;;;;;;;
2019/08/29 16:13:00;;;;;;;6.8;4.8;;;;;;;;;;;;;
2019/08/29 16:15:27;;;;;;;7;4.8;;;;;;;;;;;;;
2019/08/29 16:17:55;;;;;;;7.3;5.1;;;;;;;;;;;;;
2019/08/29 16:20:25;;;;;;;8;5.2;;;;;;;;;;;;;
2019/08/29 16:22:47;;;;;;;6.5;4.8;;;;;;;;;;;;;
2019/08/29 16:25:13;;;;;;;6.8;4.6;;;;;;;;;;;;;
2019/08/29 16:27:40;;;;;;;8.5;5.3;;;;;;;;;;;;;
2019/08/29 16:30:03;;;;;;;7;4.7;;;;;;;;;;;;;
2019/08/29 16:32:28;;;;;;;5.5;3.3;;;;;;;;;;;;;
2019/08/29 16:34:53;;;;;;;5.8;3.1;;;;;;;;;;;;;
2019/08/29 16:37:27;;;;;;;3.7;2.8;;;;;;;;;;;;;
2019/08/29 16:39:47;;;;;;;4.5;2.9;;;;;;;;;;;;;
2019/08/29 16:42:14;;;;;;;6.5;3.9;;;;;;;;;;;;;
2019/08/29 16:44:37;;;;;;;6.1;4.3;;;;;;;;;;;;;
2019/08/29 16:47:08;;;;;;;6.8;4.3;;;;;;;;;;;;;
2019/08/29 16:49:33;;;;;;;7.2;4.3;;;;;;;;;;;;;
2019/08/29 16:51:59;;;;;;;8.4;4.3;;;;;;;;;;;;;
2019/08/29 16:54:26;;;;;;;6.1;4.4;;;;;;;;;;;;;
2019/08/29 16:56:54;;;;;;;7;4.5;;;;;;;;;;;;;
2019/08/29 16:59:26;;;;;;;6;4.6;;;;;;;;;;;;;
2019/08/29 17:01:52;;;;;;;8.5;4.9;;;;;;;;;;;;;
2019/08/29 17:04:24;;;;;;;6.5;4.7;;;;;;;;;;;;;
2019/08/29 17:06:49;;;;;;;8.7;5;;;;;;;;;;;;;
2019/08/29 17:09:29;;;;;;;7.9;4.6;;;;;;;;;;;;;
2019/08/29 17:14:12;;;;;;;6.4;4.7;;;;;;;;;;;;;
2019/08/29 17:16:38;;;;;;;8.9;5;;;;;;;;;;;;;
2019/08/29 17:19:04;;;;;;;5.2;4.7;;;;;;;;;;;;;
2019/08/29 17:21:31;;;;;;;9.2;5;;;;;;;;;;;;;
2019/08/29 17:24:05;;;;;;;7.3;5.1;;;;;;;;;;;;;
2019/08/29 17:26:31;;;;;;;7.6;5.6;;;;;;;;;;;;;
2019/08/29 17:28:57;;;;;;;6.8;5.2;;;;;;;;;;;;;
2019/08/29 17:31:20;;;;;;;6.8;5.8;;;;;;;;;;;;;
2019/08/29 17:33:50;;;;;;;7;5.3;;;;;;;;;;;;;
2019/08/29 17:36:14;;;;;;;8;5.5;;;;;;;;;;;;;
2019/08/29 17:38:40;;;;;;;8.2;6.1;;;;;;;;;;;;;
2019/08/29 17:41:10;;;;;;;6.9;4.9;;;;;;;;;;;;;
2019/08/29 17:43:32;;;;;;;6.8;4.7;;;;;;;;;;;;;
2019/08/29 17:46:17;;;;;;;7.8;5.4;;;;;;;;;;;;;
2019/08/29 17:48:30;;;;;;;7.1;5.3;;;;;;;;;;;;;
2019/08/29 17:50:56;;;;;;;7.6;5.2;;;;;;;;;;;;;
2019/08/29 17:53:32;;;;;;;8.4;5.3;;;;;;;;;;;;;
2019/08/29 17:55:52;;;;;;;5.9;4.7;;;;;;;;;;;;;
2019/08/29 17:58:20;;;;;;;7.3;5;;;;;;;;;;;;;
2019/08/29 18:00:46;;;;;;;7.4;5.3;;;;;;;;;;;;;
2019/08/29 18:03:11;;;;;;;8.2;5.3;;;;;;;;;;;;;
2019/08/29 18:05:43;;;;;;;11.1;5.9;;;;;;;;;;;;;
2019/08/29 18:08:07;;;;;;;10;5.8;;;;;;;;;;;;;
2019/08/29 18:10:32;;;;;;;8.5;5.7;;;;;;;;;;;;;
2019/08/29 18:12:59;;;;;;;12.6;5.6;;;;;;;;;;;;;
2019/08/29 18:15:24;;;;;;;8.7;5.9;;;;;;;;;;;;;
2019/08/29 18:17:49;;;;;;;8.6;5.9;;;;;;;;;;;;;
2019/08/29 18:20:15;;;;;;;13.1;6.1;;;;;;;;;;;;;
2019/08/29 18:25:21;;;;;;;7.9;5.4;;;;;;;;;;;;;
2019/08/29 18:27:49;;;;;;;10.3;5.9;;;;;;;;;;;;;
2019/08/29 18:30:33;;;;;;;11.6;5.6;;;;;;;;;;;;;
2019/08/29 18:33:00;;;;;;;9.1;5.6;;;;;;;;;;;;;
2019/08/29 18:35:22;;;;;;;10.2;6.1;;;;;;;;;;;;;
2019/08/29 18:37:56;;;;;;;8.9;5.7;;;;;;;;;;;;;
2019/08/29 18:40:17;;;;;;;9.4;6;;;;;;;;;;;;;
2019/08/29 18:42:39;;;;;;;7.3;6.1;;;;;;;;;;;;;
2019/08/29 18:45:09;;;;;;;10.6;6;;;;;;;;;;;;;
2019/08/29 18:47:33;;;;;;;13.2;6.3;;;;;;;;;;;;;
2019/08/29 18:49:59;;;;;;;17.5;6;;;;;;;;;;;;;
2019/08/29 18:52:31;;;;;;;9.1;6;;;;;;;;;;;;;
2019/08/29 18:54:50;;;;;;;10.7;6;;;;;;;;;;;;;
2019/08/29 18:57:14;;;;;;;10.2;6.6;;;;;;;;;;;;;
2019/08/29 18:59:40;;;;;;;11.9;6.2;;;;;;;;;;;;;
2019/08/29 19:02:15;;;;;;;9.4;5.4;;;;;;;;;;;;;
2019/08/29 19:04:33;;;;;;;10.4;6.2;;;;;;;;;;;;;
2019/08/29 19:07:03;;;;;;;9.4;6.4;;;;;;;;;;;;;
2019/08/29 19:09:31;;;;;;;13.1;6.2;;;;;;;;;;;;;
2019/08/29 19:12:16;;;;;;;9.9;5.9;;;;;;;;;;;;;
2019/08/29 19:14:28;;;;;;;10.2;5.6;;;;;;;;;;;;;
2019/08/29 19:16:53;;;;;;;9.1;5.5;;;;;;;;;;;;;
2019/08/29 19:19:19;;;;;;;10;5.1;;;;;;;;;;;;;
2019/08/29 19:21:45;;;;;;;11.7;5.6;;;;;;;;;;;;;
2019/08/29 19:24:11;;;;;;;8.5;5.6;;;;;;;;;;;;;
2019/08/29 19:26:35;;;;;;;11.5;5.9;;;;;;;;;;;;;
2019/08/29 19:29:03;;;;;;;9.3;5.9;;;;;;;;;;;;;
2019/08/29 19:31:33;;;;;;;11.5;5.9;;;;;;;;;;;;;
2019/08/29 19:34:04;;;;;;;11.6;6;;;;;;;;;;;;;
2019/08/29 19:36:23;;;;;;;10.9;5.9;;;;;;;;;;;;;
2019/08/29 19:38:48;;;;;;;10.6;5.9;;;;;;;;;;;;;
2019/08/29 19:41:12;;;;;;;9.2;6.3;;;;;;;;;;;;;
2019/08/29 19:43:42;;;;;;;12.7;6.6;;;;;;;;;;;;;
2019/08/29 19:46:07;;;;;;;10;6.1;;;;;;;;;;;;;
2019/08/29 19:48:38;;;;;;;11.2;6.3;;;;;;;;;;;;;
2019/08/29 19:51:04;;;;;;;7.8;5.9;;;;;;;;;;;;;
2019/08/29 19:53:30;;;;;;;9.5;5.8;;;;;;;;;;;;;
2019/08/29 19:55:54;;;;;;;10.8;6.4;;;;;;;;;;;;;
2019/08/29 20:00:43;;;;;;;8.4;6.2;;;;;;;;;;;;;
2019/08/29 20:03:08;;;;;;;9.2;5.8;;;;;;;;;;;;;
2019/08/29 20:05:34;;;;;;;9.2;6.1;;;;;;;;;;;;;
2019/08/29 20:08:03;;;;;;;8.6;5.8;;;;;;;;;;;;;
2019/08/29 20:10:25;;;;;;;8.2;5.8;;;;;;;;;;;;;
2019/08/29 20:12:50;;;;;;;10.9;5.5;;;;;;;;;;;;;
2019/08/29 20:15:14;;;;;;;8.6;5.5;;;;;;;;;;;;;
2019/08/29 20:17:42;;;;;;;9.5;5.3;;;;;;;;;;;;;
2019/08/29 20:20:05;;;;;;;6.1;5.5;;;;;;;;;;;;;
2019/08/29 20:22:32;;;;;;;8.7;5.3;;;;;;;;;;;;;
2019/08/29 20:27:27;;;;;;;12.2;5.3;;;;;;;;;;;;;
2019/08/29 20:29:49;;;;;;;7.3;5.2;;;;;;;;;;;;;
2019/08/29 20:32:17;;;;;;;8;5.6;;;;;;;;;;;;;
2019/08/29 20:34:44;;;;;;;9.5;5.6;;;;;;;;;;;;;
2019/08/29 20:37:10;;;;;;;9.6;5.6;;;;;;;;;;;;;
2019/08/29 20:39:46;;;;;;;9.7;5.2;;;;;;;;;;;;;
2019/08/29 20:42:18;;;;;;;8.1;5;;;;;;;;;;;;;
2019/08/29 20:44:40;;;;;;;10.4;5.1;;;;;;;;;;;;;
2019/08/29 20:47:06;;;;;;;11.5;5.4;;;;;;;;;;;;;
2019/08/29 20:49:30;;;;;;;9.7;5.6;;;;;;;;;;;;;
2019/08/29 20:52:00;;;;;;;8.6;5.7;;;;;;;;;;;;;
2019/08/29 20:54:24;;;;;;;8.4;5.3;;;;;;;;;;;;;
2019/08/29 20:56:51;;;;;;;9.8;5.4;;;;;;;;;;;;;
2019/08/29 20:59:16;;;;;;;9.3;5.5;;;;;;;;;;;;;
2019/08/29 21:01:41;;;;;;;7.5;5.2;;;;;;;;;;;;;
2019/08/29 21:04:04;;;;;;;9.2;5.7;;;;;;;;;;;;;
2019/08/29 21:06:34;;;;;;;7.7;5.4;;;;;;;;;;;;;
2019/08/29 21:09:02;;;;;;;8.8;5.3;;;;;;;;;;;;;